Time;durP1;ratioP1;P1;durP2;ratioP2;P2;SDS_P1;SDS_P2;PMS_P1;PMS_P2;Temp;Humidity;BMP_temperature;BMP_pressure;BME280_temperature;BME280_humidity;BME280_pressure;Samples;Min_cycle;Max_cycle;Signal;HPM_P1;HPM_P2
2021/09/06 00:00:01;;;;;;;17.40;15.70;;;20.30;64.60;;;;;;5116897;27;20443;-77
2021/09/06 00:02:28;;;;;;;20.10;15.30;;;20.30;64.80;;;;;;5116824;28;20423;-77
2021/09/06 00:04:54;;;;;;;16.97;15.13;;;20.30;64.90;;;;;;5116054;28;20953;-77
2021/09/06 00:07:22;;;;;;;17.63;15.93;;;20.20;64.70;;;;;;5116346;28;20458;-77
2021/09/06 00:09:57;;;;;;;17.43;15.73;;;20.20;64.80;;;;;;5116371;28;20451;-77
2021/09/06 00:12:24;;;;;;;18.00;16.27;;;20.20;65.70;;;;;;5116331;28;20433;-77
2021/09/06 00:14:51;;;;;;;18.23;16.33;;;20.20;65.10;;;;;;5115441;28;20486;-77
2021/09/06 00:17:18;;;;;;;18.23;16.43;;;20.10;65.00;;;;;;5116274;28;20919;-77
2021/09/06 00:19:45;;;;;;;18.23;16.00;;;20.10;65.10;;;;;;5116330;28;20453;-77
2021/09/06 00:22:11;;;;;;;18.67;16.67;;;20.10;65.30;;;;;;5115869;28;20833;-77
2021/09/06 00:24:39;;;;;;;18.63;16.73;;;20.00;65.30;;;;;;5116003;28;20956;-77
2021/09/06 00:27:06;;;;;;;18.30;16.50;;;20.00;65.20;;;;;;5116338;28;20467;-77
2021/09/06 00:29:33;;;;;;;18.47;16.57;;;20.00;65.40;;;;;;5115783;28;20938;-77
2021/09/06 00:32:03;;;;;;;19.47;15.90;;;20.00;65.60;;;;;;5116067;28;20492;-77
2021/09/06 00:34:30;;;;;;;16.93;15.23;;;19.90;65.40;;;;;;5116134;28;20466;-77
2021/09/06 00:36:57;;;;;;;17.87;16.07;;;19.90;65.70;;;;;;5116066;28;20463;-77
2021/09/06 00:39:23;;;;;;;19.73;17.73;;;19.90;65.70;;;;;;5115586;28;20496;-77
2021/09/06 00:41:51;;;;;;;18.03;16.13;;;19.80;65.50;;;;;;5116000;28;20470;-77
2021/09/06 00:44:18;;;;;;;18.63;16.77;;;19.80;65.70;;;;;;5115724;28;20443;-77
2021/09/06 00:46:47;;;;;;;18.07;16.20;;;19.80;65.70;;;;;;5115543;28;20463;-77
2021/09/06 00:49:15;;;;;;;17.53;15.70;;;19.80;65.80;;;;;;5115832;28;20447;-77
2021/09/06 00:51:42;;;;;;;20.30;18.30;;;19.80;65.80;;;;;;5115906;28;20462;-77
2021/09/06 00:54:09;;;;;;;17.17;15.47;;;19.70;65.80;;;;;;5115612;28;20439;-77
2021/09/06 00:56:36;;;;;;;18.37;16.43;;;19.70;65.90;;;;;;5115593;28;20483;-77
2021/09/06 00:59:04;;;;;;;17.93;16.07;;;19.70;66.10;;;;;;5115551;28;20446;-77
2021/09/06 01:01:31;;;;;;;17.50;15.70;;;19.60;66.10;;;;;;5115540;28;20439;-77
2021/09/06 01:03:57;;;;;;;17.87;15.97;;;19.60;66.20;;;;;;5115590;28;20439;-77
2021/09/06 01:06:24;;;;;;;17.60;15.80;;;19.60;66.40;;;;;;5115038;28;20427;-77
2021/09/06 01:08:51;;;;;;;17.93;16.07;;;19.60;66.30;;;;;;5115439;28;20443;-77
2021/09/06 01:11:18;;;;;;;18.63;16.67;;;19.50;66.50;;;;;;5115127;28;20473;-77
2021/09/06 01:13:44;;;;;;;20.30;17.70;;;19.50;66.50;;;;;;5114717;28;20957;-77
2021/09/06 01:16:13;;;;;;;19.93;16.33;;;19.50;66.50;;;;;;5115161;28;20483;-77
2021/09/06 01:18:39;;;;;;;18.80;16.90;;;19.40;66.50;;;;;;5115043;28;20477;-77
2021/09/06 01:21:06;;;;;;;16.80;15.10;;;19.40;66.50;;;;;;5114777;28;20941;-77
2021/09/06 01:23:33;;;;;;;18.83;16.80;;;19.40;66.70;;;;;;5115186;28;20438;-77
2021/09/06 01:26:01;;;;;;;19.70;16.40;;;19.40;66.70;;;;;;5114214;28;20492;-77
2021/09/06 01:28:29;;;;;;;18.63;16.40;;;19.30;66.50;;;;;;5114873;28;20467;-77
2021/09/06 01:30:55;;;;;;;18.23;16.30;;;19.30;66.70;;;;;;5114983;28;20447;-77
2021/09/06 01:33:22;;;;;;;18.73;16.10;;;19.30;67.60;;;;;;5114850;28;20439;-77
2021/09/06 01:35:49;;;;;;;17.67;15.80;;;19.20;66.70;;;;;;5114468;28;21045;-77
2021/09/06 01:38:16;;;;;;;17.50;15.37;;;19.20;66.70;;;;;;5114764;28;20471;-77
2021/09/06 01:40:42;;;;;;;17.23;15.40;;;19.20;66.80;;;;;;5114559;28;20953;-77
2021/09/06 01:43:10;;;;;;;17.50;15.60;;;19.20;67.00;;;;;;5114762;28;20451;-77
2021/09/06 01:45:37;;;;;;;17.50;15.60;;;19.10;66.90;;;;;;5114555;28;20470;-77
2021/09/06 01:48:05;;;;;;;17.13;14.40;;;19.10;67.00;;;;;;5114553;28;20458;-77
2021/09/06 01:50:32;;;;;;;16.80;14.67;;;19.10;67.10;;;;;;5114513;28;20442;-77
2021/09/06 01:52:58;;;;;;;18.27;16.33;;;19.00;67.00;;;;;;5114624;28;20447;-77
2021/09/06 01:55:25;;;;;;;17.17;15.47;;;19.00;66.90;;;;;;5114290;28;20490;-77
2021/09/06 01:57:52;;;;;;;15.70;14.10;;;18.90;66.80;;;;;;5114390;28;20469;-77
2021/09/06 02:00:20;;;;;;;18.00;16.10;;;18.90;67.20;;;;;;5114419;28;20458;-77
2021/09/06 02:02:47;;;;;;;18.63;15.03;;;18.80;67.30;;;;;;5114284;28;20450;-77
2021/09/06 02:05:14;;;;;;;16.97;15.23;;;18.80;67.50;;;;;;5114197;28;20464;-77
2021/09/06 02:07:40;;;;;;;16.70;14.87;;;18.80;67.40;;;;;;5114247;28;20466;-77
2021/09/06 02:10:08;;;;;;;18.47;15.00;;;18.80;67.50;;;;;;5114537;28;20446;-77
2021/09/06 02:12:34;;;;;;;16.47;14.77;;;18.70;67.40;;;;;;5114294;28;20451;-77
2021/09/06 02:15:01;;;;;;;16.40;14.70;;;18.70;67.30;;;;;;5114074;28;20483;-77
2021/09/06 02:17:29;;;;;;;17.03;15.23;;;18.70;67.40;;;;;;5114614;28;20459;-77
2021/09/06 02:19:56;;;;;;;18.63;15.63;;;18.70;67.50;;;;;;5113831;28;20887;-77
2021/09/06 02:22:23;;;;;;;17.73;15.70;;;18.60;67.50;;;;;;5114204;28;20493;-77
2021/09/06 02:24:50;;;;;;;17.57;15.77;;;18.60;67.60;;;;;;5113859;28;20942;-77
2021/09/06 02:27:17;;;;;;;18.90;15.83;;;18.60;67.60;;;;;;5113898;28;20463;-77
2021/09/06 02:29:44;;;;;;;16.90;15.07;;;18.60;67.60;;;;;;5114071;28;20474;-77
2021/09/06 02:32:11;;;;;;;15.27;13.83;;;18.60;67.70;;;;;;5114204;28;20434;-77
2021/09/06 02:34:39;;;;;;;18.00;16.10;;;18.50;67.70;;;;;;5114089;28;20449;-77
2021/09/06 02:37:06;;;;;;;20.23;17.13;;;18.50;67.80;;;;;;5115520;28;20855;-77
2021/09/06 02:39:32;;;;;;;20.43;15.40;;;18.50;68.20;;;;;;5118050;28;20811;-77
2021/09/06 02:41:59;;;;;;;18.87;16.87;;;18.50;68.30;;;;;;5118054;28;20443;-77
2021/09/06 02:44:28;;;;;;;19.23;17.13;;;18.40;68.30;;;;;;5118093;28;20439;-77
2021/09/06 02:46:55;;;;;;;18.67;16.30;;;18.40;68.30;;;;;;5117962;28;20467;-77
2021/09/06 02:49:22;;;;;;;19.47;17.37;;;18.40;68.50;;;;;;5118083;28;20434;-77
2021/09/06 02:51:50;;;;;;;18.73;16.67;;;18.40;68.50;;;;;;5117781;28;20814;-77
2021/09/06 02:54:17;;;;;;;19.83;16.10;;;18.30;69.10;;;;;;5117795;28;20452;-77
2021/09/06 02:56:45;;;;;;;16.53;14.83;;;18.30;68.20;;;;;;5117693;28;20486;-77
2021/09/06 02:59:11;;;;;;;17.80;15.90;;;18.30;68.20;;;;;;5117850;28;20443;-77
2021/09/06 03:01:38;;;;;;;18.50;16.33;;;18.30;68.20;;;;;;5117617;28;20447;-76
2021/09/06 03:04:05;;;;;;;17.30;15.50;;;18.20;68.30;;;;;;5117214;28;20438;-77
2021/09/06 03:06:32;;;;;;;17.90;16.10;;;18.20;68.50;;;;;;5117522;28;20431;-77
2021/09/06 03:09:00;;;;;;;18.60;16.60;;;18.20;68.60;;;;;;5117236;28;20952;-77
2021/09/06 03:11:26;;;;;;;18.10;16.20;;;18.20;68.90;;;;;;5117554;28;20455;-77
2021/09/06 03:13:54;;;;;;;18.63;15.80;;;18.20;68.80;;;;;;5117110;28;20820;-77
2021/09/06 03:16:21;;;;;;;17.70;15.80;;;18.10;68.70;;;;;;5117330;28;20485;-77
2021/09/06 03:18:48;;;;;;;19.00;15.37;;;18.00;68.80;;;;;;5117296;28;20503;-77
2021/09/06 03:21:15;;;;;;;16.60;14.80;;;18.00;68.90;;;;;;5117445;28;20445;-77
2021/09/06 03:23:42;;;;;;;19.40;16.70;;;18.00;69.00;;;;;;5117620;28;20447;-76
2021/09/06 03:26:10;;;;;;;18.13;15.43;;;18.00;69.10;;;;;;5117175;28;20802;-77
2021/09/06 03:28:37;;;;;;;19.90;16.73;;;18.00;69.20;;;;;;5117035;28;21016;-77
2021/09/06 03:31:03;;;;;;;18.03;16.10;;;18.00;68.90;;;;;;5117071;28;20443;-77
2021/09/06 03:33:30;;;;;;;16.80;14.43;;;17.90;69.00;;;;;;5117106;28;20446;-76
2021/09/06 03:35:57;;;;;;;22.43;17.10;;;17.90;69.40;;;;;;5117183;28;20510;-77
2021/09/06 03:38:23;;;;;;;19.83;16.33;;;17.80;69.30;;;;;;5117002;28;20466;-77
2021/09/06 03:40:50;;;;;;;19.47;16.63;;;17.80;69.30;;;;;;5117272;28;20443;-77
2021/09/06 03:43:18;;;;;;;18.70;15.93;;;17.80;69.50;;;;;;5117313;28;20450;-77
2021/09/06 03:45:45;;;;;;;17.90;15.97;;;17.70;69.40;;;;;;5117053;28;20438;-77
2021/09/06 03:48:12;;;;;;;18.83;16.83;;;17.80;69.60;;;;;;5115703;28;20966;-77
2021/09/06 03:50:38;;;;;;;20.43;17.37;;;17.70;69.50;;;;;;5116881;28;20442;-77
2021/09/06 03:53:05;;;;;;;18.30;16.03;;;17.70;69.50;;;;;;5116671;28;20443;-77
2021/09/06 03:55:32;;;;;;;20.23;16.57;;;17.70;69.30;;;;;;5116255;28;20966;-77
2021/09/06 03:57:58;;;;;;;19.47;16.03;;;17.70;69.30;;;;;;5116553;28;20467;-77
2021/09/06 04:00:27;;;;;;;18.10;15.77;;;17.70;69.30;;;;;;5116726;28;20454;-77
2021/09/06 04:02:53;;;;;;;18.93;15.93;;;17.60;69.40;;;;;;5116637;28;20446;-77
2021/09/06 04:05:20;;;;;;;19.87;17.70;;;17.60;69.40;;;;;;5116288;28;20820;-77
2021/09/06 04:07:47;;;;;;;18.63;16.43;;;17.60;69.70;;;;;;5116306;28;20516;-77
2021/09/06 04:10:14;;;;;;;20.60;16.40;;;17.60;69.70;;;;;;5116186;28;20450;-77
2021/09/06 04:12:41;;;;;;;18.90;15.90;;;17.60;69.60;;;;;;5116084;27;20446;-77
2021/09/06 04:15:11;;;;;;;18.07;16.20;;;17.60;69.70;;;;;;5116279;28;20438;-77
2021/09/06 04:17:40;;;;;;;17.60;15.30;;;17.50;69.50;;;;;;5116089;28;20547;-77
2021/09/06 04:20:08;;;;;;;16.77;15.07;;;17.50;70.50;;;;;;5116189;28;20455;-77
2021/09/06 04:22:37;;;;;;;22.27;14.70;;;17.50;69.80;;;;;;5116169;28;20439;-76
2021/09/06 04:25:04;;;;;;;16.57;14.87;;;17.40;69.70;;;;;;5115975;28;20458;-77
2021/09/06 04:27:31;;;;;;;17.03;15.23;;;17.40;69.70;;;;;;5115880;27;20462;-76
2021/09/06 04:29:58;;;;;;;22.23;15.47;;;17.40;69.80;;;;;;5116046;28;20442;-77
2021/09/06 04:32:24;;;;;;;17.70;15.90;;;17.40;69.70;;;;;;5116323;28;20450;-77
2021/09/06 04:34:53;;;;;;;17.63;15.03;;;17.40;69.80;;;;;;5116163;28;20446;-77
2021/09/06 04:37:19;;;;;;;19.90;16.90;;;17.40;69.80;;;;;;5115565;28;20996;-77
2021/09/06 04:39:46;;;;;;;18.57;15.47;;;17.40;69.80;;;;;;5116205;28;20447;-77
2021/09/06 04:42:13;;;;;;;20.87;17.00;;;17.30;69.60;;;;;;5115609;28;20786;-77
2021/09/06 04:44:39;;;;;;;17.03;15.10;;;17.30;69.80;;;;;;5115763;28;20439;-76
2021/09/06 04:47:06;;;;;;;22.80;17.00;;;17.30;69.90;;;;;;5115940;28;20466;-77
2021/09/06 04:49:33;;;;;;;18.80;16.23;;;17.30;70.00;;;;;;5116065;28;20431;-77
2021/09/06 04:52:01;;;;;;;17.93;16.03;;;17.30;70.30;;;;;;5115861;28;20451;-77
2021/09/06 04:54:28;;;;;;;21.67;17.10;;;17.20;70.20;;;;;;5115875;28;20454;-76
2021/09/06 04:56:54;;;;;;;25.73;18.07;;;17.20;70.20;;;;;;5115474;28;20478;-76
2021/09/06 04:59:22;;;;;;;20.07;16.13;;;17.20;70.20;;;;;;5115283;28;20450;-76
2021/09/06 05:01:48;;;;;;;20.43;17.00;;;17.20;70.20;;;;;;5114996;28;20431;-76
2021/09/06 05:04:15;;;;;;;19.40;15.57;;;17.20;70.40;;;;;;5115346;28;20446;-76
2021/09/06 05:06:42;;;;;;;22.50;17.60;;;17.10;70.40;;;;;;5115193;28;20450;-76
2021/09/06 05:09:10;;;;;;;17.37;15.40;;;17.10;70.50;;;;;;5115284;28;20447;-77
2021/09/06 05:11:37;;;;;;;18.23;15.80;;;17.10;70.60;;;;;;5115430;28;20439;-77
2021/09/06 05:14:04;;;;;;;35.70;18.00;;;17.10;70.50;;;;;;5114731;28;20807;-77
2021/09/06 05:16:30;;;;;;;19.80;16.33;;;17.10;70.80;;;;;;5114533;28;20992;-77
2021/09/06 05:18:57;;;;;;;25.97;16.20;;;17.10;71.00;;;;;;5114887;28;20975;-77
2021/09/06 05:21:24;;;;;;;17.93;16.03;;;17.00;71.00;;;;;;5115077;28;20442;-77
2021/09/06 05:23:52;;;;;;;19.03;16.30;;;17.10;71.00;;;;;;5114986;28;20450;-77
2021/09/06 05:26:20;;;;;;;20.40;17.33;;;17.10;71.20;;;;;;5114949;28;20538;-77
2021/09/06 05:28:47;;;;;;;19.73;16.43;;;17.10;71.20;;;;;;5114842;28;20463;-77
2021/09/06 05:31:14;;;;;;;26.37;18.40;;;17.10;71.30;;;;;;5114523;28;20806;-77
2021/09/06 05:33:41;;;;;;;20.77;17.97;;;17.10;71.40;;;;;;5114872;28;20458;-77
2021/09/06 05:36:09;;;;;;;24.07;17.47;;;17.10;71.40;;;;;;5114805;28;20479;-77
2021/09/06 05:38:36;;;;;;;19.13;16.83;;;17.10;71.80;;;;;;5114559;28;20498;-77
2021/09/06 05:41:03;;;;;;;20.27;17.90;;;17.10;72.00;;;;;;5114691;28;20442;-77
2021/09/06 05:43:31;;;;;;;22.43;17.93;;;17.10;72.20;;;;;;5114561;28;20942;-77
2021/09/06 05:45:57;;;;;;;20.40;16.30;;;17.10;72.60;;;;;;5114611;28;20906;-77
2021/09/06 05:48:24;;;;;;;20.90;17.00;;;17.10;72.70;;;;;;5114628;28;20467;-77
2021/09/06 05:50:51;;;;;;;23.73;18.03;;;17.00;72.70;;;;;;5114732;28;20439;-77
2021/09/06 05:53:17;;;;;;;20.13;17.70;;;17.10;72.90;;;;;;5114140;28;20899;-76
2021/09/06 05:55:44;;;;;;;23.53;17.93;;;17.10;73.10;;;;;;5114182;28;20446;-76
2021/09/06 05:58:11;;;;;;;19.10;17.10;;;17.10;73.40;;;;;;5113953;28;20489;-77
2021/09/06 06:00:39;;;;;;;22.87;17.63;;;17.20;73.80;;;;;;5114345;28;20461;-77
2021/09/06 06:03:06;;;;;;;24.07;19.27;;;17.20;74.10;;;;;;5114165;28;20439;-76
2021/09/06 06:05:32;;;;;;;19.37;17.10;;;17.20;74.10;;;;;;5114206;28;20446;-75
2021/09/06 06:08:00;;;;;;;20.50;17.20;;;17.30;74.50;;;;;;5114424;28;20463;-77
2021/09/06 06:10:27;;;;;;;27.67;18.43;;;17.30;74.50;;;;;;5114496;28;20447;-77
2021/09/06 06:12:53;;;;;;;25.00;17.23;;;17.30;74.40;;;;;;5113572;28;20815;-76
2021/09/06 06:15:20;;;;;;;21.20;18.47;;;17.40;74.70;;;;;;5114005;28;20431;-75
2021/09/06 06:17:48;;;;;;;21.93;19.60;;;17.40;74.90;;;;;;5113589;28;20527;-77
2021/09/06 06:20:18;;;;;;;24.77;20.43;;;17.40;75.30;;;;;;5114305;28;20423;-75
2021/09/06 06:22:45;;;;;;;27.80;23.60;;;17.50;75.70;;;;;;5113917;28;20443;-76
2021/09/06 06:25:12;;;;;;;28.30;22.90;;;17.50;76.20;;;;;;5113844;28;20949;-77
2021/09/06 06:27:39;;;;;;;28.93;21.23;;;17.50;76.80;;;;;;5114065;28;20966;-77
2021/09/06 06:30:07;;;;;;;29.93;22.10;;;17.50;77.20;;;;;;5114094;28;20430;-77
2021/09/06 06:32:34;;;;;;;24.67;21.90;;;17.60;77.50;;;;;;5115094;28;20427;-78
2021/09/06 06:35:02;;;;;;;29.13;23.00;;;17.70;77.90;;;;;;5115419;28;20450;-78
2021/09/06 06:37:28;;;;;;;25.07;22.27;;;17.70;78.00;;;;;;5115196;28;20498;-77
2021/09/06 06:39:55;;;;;;;28.20;22.67;;;17.70;78.00;;;;;;5115934;28;20446;-77
2021/09/06 06:42:22;;;;;;;28.27;23.80;;;17.80;78.30;;;;;;5115734;28;20434;-78
2021/09/06 06:44:48;;;;;;;25.87;21.50;;;17.90;78.40;;;;;;5115930;28;20427;-78
2021/09/06 06:47:15;;;;;;;26.63;23.57;;;18.00;78.40;;;;;;5115096;28;20470;-78
2021/09/06 06:49:42;;;;;;;28.50;23.63;;;18.00;78.70;;;;;;5115652;28;20777;-78
2021/09/06 06:52:10;;;;;;;28.93;24.33;;;18.10;79.30;;;;;;5115522;28;20453;-78
2021/09/06 06:54:37;;;;;;;25.90;22.47;;;18.20;79.80;;;;;;5115937;28;20443;-78
2021/09/06 06:57:06;;;;;;;29.40;25.70;;;18.30;79.80;;;;;;5115823;28;20513;-79
2021/09/06 06:59:32;;;;;;;30.53;22.83;;;18.30;80.10;;;;;;5115799;28;20431;-79
2021/09/06 07:01:59;;;;;;;26.93;24.03;;;18.40;80.10;;;;;;5116281;28;20438;-78
2021/09/06 07:04:26;;;;;;;28.00;25.03;;;18.50;80.00;;;;;;5115938;28;20930;-78
2021/09/06 07:06:52;;;;;;;29.10;24.57;;;18.60;79.90;;;;;;5115871;28;20458;-78
2021/09/06 07:09:20;;;;;;;28.23;24.33;;;18.70;80.00;;;;;;5114737;28;20447;-78
2021/09/06 07:11:47;;;;;;;26.27;23.47;;;18.80;80.20;;;;;;5114852;28;20431;-78
2021/09/06 07:14:14;;;;;;;27.07;22.70;;;18.90;79.90;;;;;;5114549;28;20463;-78
2021/09/06 07:16:41;;;;;;;28.13;23.33;;;19.00;79.90;;;;;;5114833;28;20474;-78
2021/09/06 07:19:07;;;;;;;24.93;22.33;;;19.10;80.80;;;;;;5115149;28;20447;-78
2021/09/06 07:21:34;;;;;;;29.77;23.20;;;19.30;79.70;;;;;;5115365;28;20446;-78
2021/09/06 07:24:01;;;;;;;26.53;23.67;;;19.40;78.80;;;;;;5116159;28;20518;-79
2021/09/06 07:26:29;;;;;;;24.50;21.87;;;19.50;78.70;;;;;;5119119;28;20434;-78
2021/09/06 07:28:58;;;;;;;28.00;22.60;;;19.60;78.40;;;;;;5119649;28;20446;-78
2021/09/06 07:31:25;;;;;;;22.60;20.30;;;19.80;77.50;;;;;;5119440;28;20455;-78
2021/09/06 07:33:52;;;;;;;22.80;20.57;;;19.90;76.70;;;;;;5119337;28;20419;-78
2021/09/06 07:36:18;;;;;;;28.00;24.13;;;20.00;75.50;;;;;;5119109;28;20443;-78
2021/09/06 07:38:45;;;;;;;27.30;23.43;;;20.20;75.10;;;;;;5118658;28;20859;-78
2021/09/06 07:41:12;;;;;;;24.57;22.00;;;20.40;75.30;;;;;;5118724;28;20442;-78
2021/09/06 07:43:41;;;;;;;24.87;22.23;;;20.50;74.00;;;;;;5118660;28;20439;-78
2021/09/06 07:46:08;;;;;;;24.67;21.50;;;20.60;72.80;;;;;;5119292;28;20454;-78
2021/09/06 07:48:34;;;;;;;22.30;19.87;;;20.80;72.70;;;;;;5119329;28;20461;-79
2021/09/06 07:51:01;;;;;;;29.13;25.87;;;21.00;71.70;;;;;;5118372;28;20446;-78
2021/09/06 07:53:28;;;;;;;28.47;25.33;;;21.20;71.60;;;;;;5118177;28;20833;-78
2021/09/06 07:55:54;;;;;;;30.97;26.40;;;21.30;72.10;;;;;;5118956;28;20445;-78
2021/09/06 07:58:21;;;;;;;32.20;28.00;;;21.40;73.10;;;;;;5118159;28;20482;-78
2021/09/06 08:00:49;;;;;;;25.00;21.43;;;21.50;73.60;;;;;;5118645;28;20423;-78
2021/09/06 08:03:16;;;;;;;24.27;20.53;;;21.60;73.00;;;;;;5118138;28;20423;-78
2021/09/06 08:05:43;;;;;;;25.50;22.77;;;21.70;72.40;;;;;;5117396;28;20925;-78
2021/09/06 08:08:09;;;;;;;22.77;19.63;;;21.90;71.30;;;;;;5117824;27;20463;-78
2021/09/06 08:10:36;;;;;;;23.53;21.07;;;22.10;69.80;;;;;;5118422;28;20435;-78
2021/09/06 08:13:03;;;;;;;22.53;20.23;;;22.30;69.00;;;;;;5118794;28;20546;-78
2021/09/06 08:15:30;;;;;;;20.00;18.00;;;22.50;68.50;;;;;;5118046;28;20427;-78
2021/09/06 08:17:58;;;;;;;22.10;19.80;;;22.70;67.10;;;;;;5118589;28;20483;-78
2021/09/06 08:20:25;;;;;;;21.37;19.00;;;22.90;65.60;;;;;;5118530;28;20443;-78
2021/09/06 08:22:52;;;;;;;23.93;17.80;;;23.20;64.90;;;;;;5117958;28;20447;-78
2021/09/06 08:25:19;;;;;;;20.93;18.70;;;23.40;63.80;;;;;;5117415;28;20780;-78
2021/09/06 08:27:46;;;;;;;22.17;19.07;;;23.60;63.20;;;;;;5117678;28;20469;-78
2021/09/06 08:30:14;;;;;;;23.30;21.07;;;23.90;62.80;;;;;;5117807;28;20458;-78
2021/09/06 08:32:43;;;;;;;21.33;18.97;;;24.10;61.80;;;;;;5117847;27;20439;-78
2021/09/06 08:35:12;;;;;;;25.77;23.03;;;24.30;61.50;;;;;;5117527;28;20419;-78
2021/09/06 08:37:39;;;;;;;22.17;18.10;;;24.60;60.40;;;;;;5117321;28;20482;-78
2021/09/06 08:40:09;;;;;;;20.17;18.17;;;24.70;59.00;;;;;;5118062;28;20446;-78
2021/09/06 08:42:36;;;;;;;22.43;19.93;;;24.90;58.70;;;;;;5118243;28;20438;-78
2021/09/06 08:45:04;;;;;;;22.43;20.30;;;25.10;58.00;;;;;;5117938;28;20520;-78
2021/09/06 08:47:32;;;;;;;21.30;19.10;;;25.30;56.80;;;;;;5117660;28;20469;-78
2021/09/06 08:49:59;;;;;;;20.77;17.77;;;25.50;56.00;;;;;;5117897;28;20811;-78
2021/09/06 08:52:28;;;;;;;21.47;19.37;;;25.70;55.60;;;;;;5117929;28;20796;-79
2021/09/06 08:54:54;;;;;;;21.00;19.00;;;25.90;55.50;;;;;;5118125;28;20814;-78
2021/09/06 08:57:21;;;;;;;24.20;21.57;;;26.10;55.40;;;;;;5118080;28;20474;-78
2021/09/06 08:59:56;;;;;;;20.73;18.77;;;26.30;55.00;;;;;;5118152;28;20439;-79
2021/09/06 09:02:23;;;;;;;22.53;20.23;;;26.40;54.90;;;;;;5118916;28;20790;-78
2021/09/06 09:04:59;;;;;;;20.80;18.80;;;26.60;54.50;;;;;;5119772;28;20489;-79
2021/09/06 09:07:28;;;;;;;23.50;21.17;;;26.80;54.10;;;;;;5119285;27;20466;-78
2021/09/06 09:09:55;;;;;;;19.67;17.77;;;27.00;53.10;;;;;;5118089;28;20435;-78
2021/09/06 09:12:22;;;;;;;23.07;19.30;;;27.20;51.90;;;;;;5118453;28;20427;-79
2021/09/06 09:14:50;;;;;;;22.20;19.90;;;27.50;52.00;;;;;;5118751;28;20466;-79
2021/09/06 09:17:18;;;;;;;23.03;20.83;;;27.70;51.70;;;;;;5118903;28;20482;-79
2021/09/06 09:19:46;;;;;;;21.53;19.37;;;27.90;50.30;;;;;;5118722;28;20556;-79
2021/09/06 09:22:16;;;;;;;24.97;22.53;;;28.00;49.80;;;;;;5118401;28;20462;-79
2021/09/06 09:24:55;;;;;;;24.20;21.70;;;28.10;50.50;;;;;;5118508;28;20426;-79
2021/09/06 09:27:30;;;;;;;24.13;21.80;;;28.20;49.90;;;;;;5119173;28;20455;-79
2021/09/06 09:29:57;;;;;;;20.00;18.20;;;28.40;49.70;;;;;;5118518;28;20431;-79
2021/09/06 09:32:24;;;;;;;19.17;17.37;;;28.50;49.30;;;;;;5118419;28;20446;-79
2021/09/06 09:34:51;;;;;;;18.93;16.50;;;28.60;49.30;;;;;;5118742;28;20443;-79
2021/09/06 09:37:25;;;;;;;16.27;14.87;;;28.90;49.00;;;;;;5119248;28;20467;-79
2021/09/06 09:39:56;;;;;;;15.53;14.07;;;29.20;48.30;;;;;;5118732;28;20438;-79
2021/09/06 09:42:23;;;;;;;16.93;14.47;;;29.50;47.20;;;;;;5118455;27;20780;-79
2021/09/06 09:44:51;;;;;;;17.20;15.60;;;29.80;45.90;;;;;;5119061;28;20447;-79
2021/09/06 09:47:20;;;;;;;19.97;18.17;;;30.10;45.10;;;;;;5117774;28;20471;-79
2021/09/06 09:49:48;;;;;;;17.40;15.90;;;30.40;44.80;;;;;;5118872;28;20455;-79
2021/09/06 09:52:15;;;;;;;16.27;14.77;;;30.60;43.50;;;;;;5119959;28;20458;-80
2021/09/06 09:54:42;;;;;;;16.73;15.27;;;30.70;43.20;;;;;;5120235;28;20449;-79
2021/09/06 09:57:13;;;;;;;16.90;15.37;;;31.00;43.30;;;;;;5118893;28;20988;-79
2021/09/06 09:59:41;;;;;;;17.87;16.23;;;31.30;43.10;;;;;;5119471;28;20899;-80
2021/09/06 10:02:10;;;;;;;16.10;14.60;;;31.60;41.80;;;;;;5119347;28;20491;-80
2021/09/06 10:04:43;;;;;;;16.17;14.77;;;31.90;41.90;;;;;;5119324;28;20434;-80
2021/09/06 10:07:11;;;;;;;17.50;16.00;;;32.30;40.90;;;;;;5119015;28;20469;-80
2021/09/06 10:09:42;;;;;;;16.67;15.17;;;32.60;40.00;;;;;;5118729;28;20434;-80
2021/09/06 10:12:17;;;;;;;17.13;15.70;;;32.90;38.10;;;;;;5119148;28;20488;-79
2021/09/06 10:14:50;;;;;;;15.83;14.37;;;33.20;37.60;;;;;;5118706;28;20457;-79
2021/09/06 10:17:17;;;;;;;17.77;16.30;;;33.60;37.10;;;;;;5117905;28;20461;-79
2021/09/06 10:19:49;;;;;;;19.83;18.13;;;33.90;36.50;;;;;;5117431;28;20506;-78
2021/09/06 10:22:23;;;;;;;19.73;18.13;;;34.10;35.10;;;;;;5117544;28;20483;-79
2021/09/06 10:24:57;;;;;;;16.60;15.23;;;34.40;34.30;;;;;;5117333;28;20509;-78
2021/09/06 10:27:26;;;;;;;16.83;15.53;;;34.60;34.00;;;;;;5117494;28;20480;-82
2021/09/06 10:30:01;;;;;;;15.90;14.37;;;34.90;33.50;;;;;;5118521;28;20964;-79
2021/09/06 10:32:38;;;;;;;15.90;14.40;;;35.40;32.80;;;;;;5118588;28;20442;-79
2021/09/06 10:35:08;;;;;;;16.93;15.47;;;35.80;32.20;;;;;;5117443;28;20833;-79
2021/09/06 10:37:36;;;;;;;15.83;14.53;;;36.20;30.40;;;;;;5116828;28;20469;-79
2021/09/06 10:40:04;;;;;;;15.27;13.77;;;36.70;30.20;;;;;;5117409;28;20609;-79
2021/09/06 10:42:34;;;;;;;14.07;13.00;;;37.30;29.80;;;;;;5117595;28;20185;-79
2021/09/06 10:45:02;;;;;;;15.88;14.25;;;37.80;28.90;;;;;;5117476;28;20211;-79
2021/09/06 10:47:35;;;;;;;16.73;14.73;;;38.50;28.30;;;;;;5116637;28;20231;-79
2021/09/06 10:50:12;;;;;;;14.60;13.27;;;39.00;26.70;;;;;;5116581;28;20188;-79
2021/09/06 10:52:41;;;;;;;17.65;14.63;;;39.50;26.30;;;;;;5117960;28;20192;-79
2021/09/06 10:55:08;;;;;;;14.82;13.63;;;39.80;26.20;;;;;;5117177;28;20215;-80
2021/09/06 10:57:38;;;;;;;19.90;18.13;;;40.10;26.20;;;;;;5119083;28;20235;-79
2021/09/06 11:00:07;;;;;;;19.30;17.70;;;40.40;24.30;;;;;;5121517;28;20196;-79
2021/09/06 11:02:34;;;;;;;16.73;15.43;;;40.50;24.40;;;;;;5121544;28;20212;-79
2021/09/06 11:05:01;;;;;;;16.45;14.95;;;40.50;24.50;;;;;;5121050;28;20195;-79
2021/09/06 11:07:27;;;;;;;15.23;14.02;;;40.30;24.50;;;;;;5121167;28;20227;-79
2021/09/06 11:09:54;;;;;;;19.10;17.55;;;40.10;24.90;;;;;;5121364;28;20209;-79
2021/09/06 11:12:21;;;;;;;18.15;16.65;;;39.70;24.50;;;;;;5121709;28;20197;-79
2021/09/06 11:14:49;;;;;;;18.75;17.35;;;39.10;25.40;;;;;;5120800;28;20215;-79
2021/09/06 11:17:17;;;;;;;17.85;16.42;;;38.50;26.50;;;;;;5121588;28;20224;-79
2021/09/06 11:19:44;;;;;;;18.73;16.92;;;38.10;26.90;;;;;;5120440;28;20228;-79
2021/09/06 11:22:16;;;;;;;16.67;15.20;;;38.10;26.70;;;;;;5119895;28;20185;-78
2021/09/06 11:24:43;;;;;;;18.65;17.05;;;38.20;27.10;;;;;;5118388;28;20185;-77
2021/09/06 11:27:22;;;;;;;17.85;16.45;;;38.50;26.80;;;;;;5118229;28;20737;-78
2021/09/06 11:29:50;;;;;;;17.35;15.85;;;38.60;26.00;;;;;;5118561;28;20192;-78
2021/09/06 11:32:17;;;;;;;20.13;18.52;;;38.60;25.80;;;;;;5117147;28;20724;-78
2021/09/06 11:34:44;;;;;;;15.88;14.57;;;38.90;25.80;;;;;;5119066;28;20220;-78
2021/09/06 11:37:13;;;;;;;13.93;12.68;;;39.20;25.20;;;;;;5119543;28;20715;-78
2021/09/06 11:39:43;;;;;;;16.98;15.65;;;39.50;25.20;;;;;;5119608;28;20204;-78
2021/09/06 11:42:10;;;;;;;16.30;15.10;;;40.00;24.20;;;;;;5121291;28;20268;-79
2021/09/06 11:44:38;;;;;;;17.33;15.90;;;40.10;23.30;;;;;;5119598;28;20189;-78
2021/09/06 11:47:06;;;;;;;17.63;16.13;;;40.20;24.30;;;;;;5118821;28;20227;-78
2021/09/06 11:49:33;;;;;;;15.73;14.35;;;40.50;23.10;;;;;;5118109;28;20656;-77
2021/09/06 11:52:10;;;;;;;15.90;14.68;;;40.60;22.90;;;;;;5118038;28;20685;-78
2021/09/06 11:54:44;;;;;;;14.13;13.02;;;41.00;22.80;;;;;;5119879;28;20201;-78
2021/09/06 11:57:16;;;;;;;12.30;11.40;;;41.40;22.90;;;;;;5118732;28;20226;-78
2021/09/06 11:59:51;;;;;;;14.73;13.57;;;41.90;22.80;;;;;;5118108;28;20235;-79
2021/09/06 12:02:19;;;;;;;15.88;14.65;;;42.50;22.30;;;;;;5118760;28;20180;-78
2021/09/06 12:04:46;;;;;;;14.63;13.43;;;43.00;21.10;;;;;;5120341;28;20224;-79
2021/09/06 12:07:17;;;;;;;14.88;13.63;;;43.20;20.30;;;;;;5119656;28;20640;-79
2021/09/06 12:09:44;;;;;;;14.30;13.20;;;43.20;20.00;;;;;;5118367;28;20220;-78
2021/09/06 12:12:18;;;;;;;13.20;12.23;;;43.10;20.10;;;;;;5119102;28;20200;-78
2021/09/06 12:14:46;;;;;;;13.90;12.73;;;43.10;20.90;;;;;;5119262;28;20613;-79
2021/09/06 12:17:13;;;;;;;15.57;14.05;;;43.40;20.50;;;;;;5119016;28;20221;-79
2021/09/06 12:19:47;;;;;;;16.10;14.85;;;43.50;19.40;;;;;;5120546;28;20220;-79
2021/09/06 12:22:19;;;;;;;13.40;12.30;;;43.30;19.50;;;;;;5119437;28;20199;-79
2021/09/06 12:24:47;;;;;;;12.43;11.52;;;43.40;19.70;;;;;;5119198;28;20196;-78
2021/09/06 12:27:15;;;;;;;13.00;12.00;;;43.70;20.30;;;;;;5120836;28;20224;-79
2021/09/06 12:29:43;;;;;;;12.48;11.52;;;44.10;19.40;;;;;;5119822;28;20581;-79